Time;durP1;ratioP1;P1;durP2;ratioP2;P2;SDS_P1;SDS_P2;PMS_P1;PMS_P2;Temp;Humidity;BMP_temperature;BMP_pressure;BME280_temperature;BME280_humidity;BME280_pressure;Samples;Min_cycle;Max_cycle;Signal;HPM_P1;HPM_P2
2024/03/08 00:00:27;;;;;;;8.60;2.95;;;;;;;11.87;64.95;98162.25;5072498;28;20055;-49
2024/03/08 00:02:53;;;;;;;9.05;3.70;;;;;;;11.84;65.27;98154.78;5073851;28;20490;-49
2024/03/08 00:05:20;;;;;;;6.40;3.28;;;;;;;11.99;64.78;98143.91;5073748;28;20024;-50
2024/03/08 00:07:46;;;;;;;7.60;3.97;;;;;;;12.15;64.26;98139.84;5072452;28;20025;-49
2024/03/08 00:10:13;;;;;;;8.30;4.18;;;;;;;12.22;62.76;98145.03;5072440;28;20075;-49
2024/03/08 00:12:43;;;;;;;8.82;4.05;;;;;;;12.25;62.97;98136.69;5073594;28;20024;-49
2024/03/08 00:15:14;;;;;;;8.13;4.35;;;;;;;12.28;62.64;98141.50;5073559;28;20390;-49
2024/03/08 00:17:45;;;;;;;8.02;3.30;;;;;;;12.28;62.33;98144.13;5073573;28;20020;-49
2024/03/08 00:20:13;;;;;;;6.32;3.20;;;;;;;12.36;60.71;98147.25;5072130;28;20862;-49
2024/03/08 00:22:38;;;;;;;8.30;3.45;;;;;;;12.24;60.32;98140.34;5073523;28;20031;-49
2024/03/08 00:25:08;;;;;;;9.02;3.78;;;;;;;12.08;60.03;98139.16;5073434;28;20104;-49
2024/03/08 00:27:34;;;;;;;7.38;3.28;;;;;;;11.89;60.59;98141.81;5073453;28;20082;-49
2024/03/08 00:30:00;;;;;;;9.43;3.85;;;;;;;11.69;60.94;98128.06;5073417;28;20017;-49
2024/03/08 00:32:27;;;;;;;8.52;3.78;;;;;;;11.55;61.70;98125.63;5072012;28;20020;-49
2024/03/08 00:34:54;;;;;;;9.25;3.60;;;;;;;11.51;62.33;98126.25;5071944;28;20066;-49
2024/03/08 00:37:23;;;;;;;9.38;3.38;;;;;;;11.47;62.41;98128.53;5073504;28;20086;-49
2024/03/08 00:39:50;;;;;;;10.27;3.67;;;;;;;11.42;62.16;98125.75;5072160;28;20056;-49
2024/03/08 00:42:17;;;;;;;11.02;3.88;;;;;;;11.33;62.80;98120.00;5071656;28;20387;-50
2024/03/08 00:44:42;;;;;;;8.38;3.88;;;;;;;11.33;62.42;98120.00;5073083;28;20020;-49
2024/03/08 00:47:11;;;;;;;7.25;3.63;;;;;;;11.42;62.59;98117.09;5072939;28;20021;-49
2024/03/08 00:49:37;;;;;;;12.65;3.83;;;;;;;11.49;62.17;98115.16;5071475;28;20165;-50
2024/03/08 00:52:06;;;;;;;10.32;4.38;;;;;;;11.47;61.21;98106.69;5072794;28;20043;-49
2024/03/08 00:54:33;;;;;;;10.15;4.15;;;;;;;11.46;61.08;98099.84;5071553;28;20480;-49
2024/03/08 00:57:00;;;;;;;8.73;4.13;;;;;;;11.52;60.26;98094.50;5071435;28;20109;-49
2024/03/08 00:59:26;;;;;;;10.45;3.72;;;;;;;11.39;59.85;98098.09;5070888;28;20021;-49
2024/03/08 01:01:51;;;;;;;11.43;4.18;;;;;;;11.38;59.25;98087.81;5054469;28;20123;-49
2024/03/08 01:04:18;;;;;;;11.02;4.30;;;;;;;11.26;58.79;98082.47;5072641;28;20031;-49
2024/03/08 01:06:45;;;;;;;18.50;6.50;;;;;;;11.18;59.30;98086.19;5071552;28;20502;-49
2024/03/08 01:09:11;;;;;;;10.48;4.55;;;;;;;11.17;58.28;98081.19;5071518;28;20032;-49
2024/03/08 01:11:37;;;;;;;6.90;4.18;;;;;;;11.15;57.21;98083.22;5072480;28;20044;-49
2024/03/08 01:14:03;;;;;;;8.27;4.60;;;;;;;11.05;57.20;98072.44;5072462;28;20036;-50
2024/03/08 01:16:33;;;;;;;7.78;4.72;;;;;;;11.04;56.42;98076.88;5071252;28;20398;-49
2024/03/08 01:18:59;;;;;;;8.45;4.35;;;;;;;10.97;56.68;98071.69;5072309;28;20032;-49
2024/03/08 01:21:24;;;;;;;5.93;4.43;;;;;;;10.88;56.50;98070.34;5070902;28;20494;-49
2024/03/08 01:23:50;;;;;;;7.57;4.47;;;;;;;10.71;57.16;98077.19;5072244;28;20459;-49
2024/03/08 01:26:16;;;;;;;11.40;4.78;;;;;;;10.79;56.83;98074.31;5072219;28;20024;-49
2024/03/08 01:28:41;;;;;;;8.98;4.63;;;;;;;10.84;55.85;98071.81;5072245;28;20021;-49
2024/03/08 01:31:07;;;;;;;6.65;4.10;;;;;;;10.97;56.05;98071.69;5070831;28;20111;-49
2024/03/08 01:33:33;;;;;;;7.28;4.95;;;;;;;11.06;54.75;98061.69;5072202;28;20024;-49
2024/03/08 01:35:58;;;;;;;10.07;4.45;;;;;;;11.08;54.58;98067.53;5072076;28;20364;-49
2024/03/08 01:38:24;;;;;;;9.38;5.50;;;;;;;11.06;55.23;98068.78;5072371;28;20070;-49
2024/03/08 01:40:51;;;;;;;8.73;4.68;;;;;;;11.06;54.57;98059.06;5071936;28;20162;-49
2024/03/08 01:43:30;;;;;;;9.15;4.65;;;;;;;11.09;54.49;98053.38;5072037;28;20047;-49
2024/03/08 01:45:59;;;;;;;8.20;5.28;;;;;;;11.12;53.84;98044.25;5071978;28;20029;-49
2024/03/08 01:48:27;;;;;;;5.72;4.60;;;;;;;10.94;53.46;98039.81;5070464;28;20147;-49
2024/03/08 01:50:54;;;;;;;6.30;4.60;;;;;;;10.81;53.89;98035.50;5071864;28;20032;-49
2024/03/08 01:53:20;;;;;;;8.25;4.68;;;;;;;10.75;54.38;98037.19;5071960;28;20082;-49
2024/03/08 01:55:49;;;;;;;6.68;5.18;;;;;;;10.60;54.77;98031.47;5071862;28;20051;-49
2024/03/08 01:58:15;;;;;;;7.40;5.20;;;;;;;10.36;54.78;98030.47;5071850;28;20051;-49
2024/03/08 02:00:46;;;;;;;6.75;4.97;;;;;;;9.91;56.14;98030.59;5070416;28;20048;-49
2024/03/08 02:03:12;;;;;;;9.90;5.25;;;;;;;9.69;57.44;98019.63;5071847;28;20052;-49
2024/03/08 02:05:40;;;;;;;8.10;4.80;;;;;;;9.72;57.89;98020.03;5071753;28;20529;-49
2024/03/08 02:08:12;;;;;;;7.60;5.20;;;;;;;9.64;57.89;98011.59;5071757;28;20082;-49
2024/03/08 02:10:39;;;;;;;5.82;4.97;;;;;;;9.65;57.98;98015.84;5070248;28;20133;-49
2024/03/08 02:13:08;;;;;;;11.40;5.00;;;;;;;9.57;58.04;98006.41;5070743;28;20135;-49
2024/03/08 02:15:56;;;;;;;8.65;4.78;;;;;;;9.62;58.36;98003.13;5071631;28;20107;-49
2024/03/08 02:18:23;;;;;;;6.82;5.25;;;;;;;9.48;58.26;97997.19;5071651;28;20066;-49
2024/03/08 02:20:53;;;;;;;6.03;4.60;;;;;;;9.44;58.79;97988.13;5071603;28;20025;-49
2024/03/08 02:23:22;;;;;;;12.20;8.32;;;;;;;9.55;58.89;97990.09;5071606;28;20031;-49
2024/03/08 02:25:49;;;;;;;11.73;7.10;;;;;;;9.61;59.17;97978.75;5071530;28;20036;-49
2024/03/08 02:28:15;;;;;;;15.63;11.32;;;;;;;9.83;59.48;97981.84;5071527;28;20074;-49
2024/03/08 02:30:41;;;;;;;12.00;6.88;;;;;;;9.98;59.55;97987.59;5070500;28;20023;-49
2024/03/08 02:33:09;;;;;;;17.63;8.38;;;;;;;10.25;60.19;97981.31;5071525;28;20024;-49
2024/03/08 02:35:35;;;;;;;9.38;6.07;;;;;;;10.57;59.26;97969.72;5072071;28;20016;-50
2024/03/08 02:38:03;;;;;;;7.70;4.78;;;;;;;10.88;57.11;97967.97;5071410;28;20024;-49
2024/03/08 02:40:29;;;;;;;9.13;4.68;;;;;;;10.82;61.99;97965.44;5071349;28;20048;-47
2024/03/08 02:42:55;;;;;;;7.78;5.22;;;;;;;9.78;66.90;97958.91;5071332;28;20059;-48
2024/03/08 02:45:20;;;;;;;11.02;8.10;;;;;;;8.93;71.02;97956.56;5071677;28;20028;-48
2024/03/08 02:47:49;;;;;;;8.98;4.95;;;;;;;8.75;71.51;97956.41;5070035;28;20092;-47
2024/03/08 02:50:16;;;;;;;6.75;4.80;;;;;;;8.41;70.26;97950.50;5071376;28;20391;-47
2024/03/08 02:52:42;;;;;;;6.28;4.60;;;;;;;8.44;69.91;97944.84;5070231;28;20095;-47
2024/03/08 02:55:10;;;;;;;7.95;5.22;;;;;;;8.75;67.81;97943.34;5069998;28;20441;-47
2024/03/08 02:57:36;;;;;;;12.02;10.77;;;;;;;9.09;66.83;97941.38;5069978;28;20028;-47
2024/03/08 03:00:03;;;;;;;19.50;17.17;;;;;;;9.33;63.49;97937.22;5071211;28;20024;-47
2024/03/08 03:02:29;;;;;;;13.93;12.43;;;;;;;9.43;63.55;97923.69;5071353;28;20480;-47
2024/03/08 03:04:55;;;;;;;10.43;8.43;;;;;;;9.62;62.78;97921.94;5071143;28;20399;-47
2024/03/08 03:07:21;;;;;;;8.50;5.63;;;;;;;9.77;62.84;97927.66;5069801;28;20028;-47
2024/03/08 03:09:47;;;;;;;7.78;5.45;;;;;;;9.76;61.16;97932.13;5071098;28;20179;-47
2024/03/08 03:12:13;;;;;;;9.88;7.43;;;;;;;9.74;61.79;97936.75;5069803;28;20509;-47
2024/03/08 03:14:39;;;;;;;7.60;5.97;;;;;;;9.88;61.78;97929.59;5070053;28;20082;-48
2024/03/08 03:17:05;;;;;;;9.13;6.45;;;;;;;10.10;61.31;97921.34;5069681;28;20032;-48
2024/03/08 03:19:31;;;;;;;8.23;5.35;;;;;;;10.13;59.43;97918.28;5071039;28;20044;-48
2024/03/08 03:21:57;;;;;;;8.40;6.18;;;;;;;10.05;59.74;97923.81;5069630;28;20435;-48
2024/03/08 03:24:23;;;;;;;11.32;6.18;;;;;;;10.14;59.93;97919.88;5072304;28;20038;-48
2024/03/08 03:26:49;;;;;;;7.40;4.85;;;;;;;10.14;58.25;97915.47;5073260;28;20032;-48
2024/03/08 03:29:16;;;;;;;8.77;5.40;;;;;;;10.03;57.66;97918.00;5074519;28;20023;-48
2024/03/08 03:31:46;;;;;;;7.40;5.13;;;;;;;10.05;58.97;97927.22;5074709;28;20020;-48
2024/03/08 03:34:13;;;;;;;5.63;5.07;;;;;;;10.05;58.49;97914.13;5074362;28;20035;-48
2024/03/08 03:36:42;;;;;;;6.55;5.55;;;;;;;10.06;58.85;97913.13;5074399;28;20020;-48
2024/03/08 03:39:12;;;;;;;8.68;5.00;;;;;;;10.08;58.54;97905.84;5074356;28;20458;-48
2024/03/08 03:41:39;;;;;;;9.13;5.90;;;;;;;10.16;58.85;97912.59;5074250;28;20025;-49
2024/03/08 03:44:08;;;;;;;10.02;6.00;;;;;;;10.30;58.07;97910.69;5072953;28;20123;-49
2024/03/08 03:46:34;;;;;;;10.88;6.63;;;;;;;10.25;55.74;97895.56;5072956;28;20055;-49
2024/03/08 03:49:00;;;;;;;8.18;6.88;;;;;;;10.09;56.42;97901.41;5073939;28;20072;-48
2024/03/08 03:51:26;;;;;;;10.63;6.28;;;;;;;10.00;57.29;97899.06;5072832;28;20394;-49
2024/03/08 03:53:52;;;;;;;7.25;5.85;;;;;;;10.04;56.04;97896.81;5074583;28;20036;-49
2024/03/08 03:56:19;;;;;;;13.55;6.50;;;;;;;9.87;57.12;97899.16;5074089;28;20036;-49
2024/03/08 03:58:47;;;;;;;9.05;7.40;;;;;;;9.87;57.61;97890.50;5074254;28;20042;-49
2024/03/08 04:01:13;;;;;;;8.30;6.82;;;;;;;9.95;56.90;97893.63;5055898;28;20070;-49
2024/03/08 04:03:42;;;;;;;10.75;7.93;;;;;;;10.02;57.15;97885.75;5072561;28;20028;-49
2024/03/08 04:06:08;;;;;;;9.00;7.57;;;;;;;10.01;57.14;97891.97;5072461;28;20036;-49
2024/03/08 04:08:34;;;;;;;7.65;6.30;;;;;;;10.13;57.41;97895.50;5072531;28;20074;-49
2024/03/08 04:11:00;;;;;;;8.25;6.60;;;;;;;10.25;56.16;97886.91;5073732;28;20028;-49
2024/03/08 04:13:26;;;;;;;8.63;7.30;;;;;;;10.13;55.87;97890.25;5073653;28;20028;-49
2024/03/08 04:15:52;;;;;;;8.88;6.95;;;;;;;10.11;55.89;97881.81;5073610;28;20104;-49
2024/03/08 04:18:20;;;;;;;10.40;7.85;;;;;;;10.02;55.64;97885.75;5072434;28;20078;-48
2024/03/08 04:20:46;;;;;;;12.27;7.22;;;;;;;9.99;55.88;97883.53;5072180;28;20074;-49
2024/03/08 04:23:12;;;;;;;12.90;9.50;;;;;;;9.97;55.39;97875.09;5073511;28;20021;-49
2024/03/08 04:25:38;;;;;;;11.18;7.97;;;;;;;9.86;55.22;97870.53;5073479;28;20044;-49
2024/03/08 04:28:04;;;;;;;11.15;8.32;;;;;;;9.63;56.00;97879.81;5073412;28;20020;-49
2024/03/08 04:30:30;;;;;;;12.13;8.82;;;;;;;9.48;56.50;97869.66;5072036;28;20028;-49
2024/03/08 04:32:56;;;;;;;8.60;7.70;;;;;;;9.43;56.62;97874.72;5072300;28;20451;-50
2024/03/08 04:35:21;;;;;;;14.70;9.20;;;;;;;9.44;57.18;97868.47;5072130;28;20111;-49
2024/03/08 04:37:47;;;;;;;15.40;9.82;;;;;;;9.50;56.74;97866.84;5072170;28;20064;-49
2024/03/08 04:40:13;;;;;;;11.50;8.48;;;;;;;9.39;57.10;97870.91;5073165;28;20402;-49
2024/03/08 04:42:40;;;;;;;10.80;8.73;;;;;;;9.44;57.61;97865.03;5071843;28;20145;-50
2024/03/08 04:45:07;;;;;;;12.25;8.38;;;;;;;9.66;57.71;97850.56;5073289;28;20486;-49
2024/03/08 04:47:33;;;;;;;10.52;8.38;;;;;;;9.86;56.27;97853.03;5073274;28;20035;-49
2024/03/08 04:49:59;;;;;;;12.70;9.25;;;;;;;9.83;55.47;97847.41;5072792;28;20041;-50
2024/03/08 04:52:25;;;;;;;9.88;8.77;;;;;;;9.81;55.87;97847.59;5071632;28;20073;-50
2024/03/08 04:54:51;;;;;;;12.45;8.70;;;;;;;9.71;55.54;97840.22;5072865;28;20509;-49
2024/03/08 04:57:19;;;;;;;26.30;10.32;;;;;;;9.73;56.53;97848.69;5072864;28;20024;-49
2024/03/08 04:59:45;;;;;;;22.65;9.80;;;;;;;9.86;55.85;97844.34;5072754;28;20047;-49
2024/03/08 05:02:11;;;;;;;13.98;9.93;;;;;;;9.86;55.58;97844.34;5072641;28;20020;-49
2024/03/08 05:04:37;;;;;;;13.85;9.15;;;;;;;9.87;55.49;97832.84;5071532;28;20020;-49
2024/03/08 05:07:03;;;;;;;10.20;9.15;;;;;;;9.69;55.19;97838.84;5072590;28;20576;-49
2024/03/08 05:09:31;;;;;;;12.50;9.65;;;;;;;9.43;56.27;97840.66;5071312;28;20397;-49
2024/03/08 05:11:59;;;;;;;19.02;10.40;;;;;;;9.43;56.64;97830.19;5072594;28;20094;-49
2024/03/08 05:14:25;;;;;;;12.50;10.02;;;;;;;9.44;56.58;97836.22;5072492;28;20103;-50
2024/03/08 05:16:51;;;;;;;14.52;10.50;;;;;;;9.30;56.74;97836.34;5072414;28;20051;-49
2024/03/08 05:19:18;;;;;;;11.88;10.73;;;;;;;9.24;56.79;97828.56;5072424;28;20111;-49
2024/03/08 05:21:44;;;;;;;14.15;9.77;;;;;;;9.15;57.53;97826.16;5072319;28;20521;-49
2024/03/08 05:24:10;;;;;;;14.13;10.27;;;;;;;9.09;57.34;97813.13;5072410;28;20051;-49
2024/03/08 05:26:37;;;;;;;14.65;11.07;;;;;;;8.96;58.08;97819.28;5072533;28;20052;-50
2024/03/08 05:29:03;;;;;;;15.38;11.35;;;;;;;8.89;57.85;97821.91;5072269;28;20031;-49
2024/03/08 05:31:31;;;;;;;14.02;10.73;;;;;;;8.86;58.37;97819.72;5070933;28;20034;-49
2024/03/08 05:33:56;;;;;;;14.80;10.88;;;;;;;8.90;58.55;97814.88;5072120;28;20521;-49
2024/03/08 05:36:22;;;;;;;14.88;11.27;;;;;;;8.84;58.55;97824.38;5070828;28;20024;-49
2024/03/08 05:38:50;;;;;;;12.13;10.50;;;;;;;8.77;58.53;97821.78;5070804;28;20410;-50
2024/03/08 05:41:17;;;;;;;13.77;10.45;;;;;;;8.65;59.23;97820.81;5071997;28;20501;-49
2024/03/08 05:43:43;;;;;;;13.32;11.07;;;;;;;8.72;59.70;97820.81;5070715;28;20031;-49
2024/03/08 05:46:11;;;;;;;12.13;10.48;;;;;;;8.85;59.39;97830.41;5071643;28;20020;-49
2024/03/08 05:48:37;;;;;;;16.75;11.45;;;;;;;8.99;59.01;97824.88;5070569;28;20878;-50
2024/03/08 05:51:03;;;;;;;12.40;10.93;;;;;;;9.01;58.12;97824.66;5072173;28;20017;-49
2024/03/08 05:53:32;;;;;;;11.70;10.15;;;;;;;8.85;58.43;97823.34;5071913;28;20024;-49
2024/03/08 05:55:58;;;;;;;13.00;10.05;;;;;;;8.74;59.22;97814.34;5070567;28;20059;-49
2024/03/08 05:58:24;;;;;;;16.73;11.40;;;;;;;8.88;58.38;97820.31;5070792;28;20565;-49
2024/03/08 06:00:50;;;;;;;16.33;10.85;;;;;;;8.95;58.82;97822.88;5070384;28;20498;-49
2024/03/08 06:03:16;;;;;;;15.90;11.13;;;;;;;9.08;58.62;97828.03;5071818;28;20020;-49
2024/03/08 06:05:42;;;;;;;15.27;10.50;;;;;;;9.11;57.82;97824.19;5071843;28;20224;-49
2024/03/08 06:08:07;;;;;;;15.73;11.43;;;;;;;9.00;57.50;97821.25;5070459;28;20039;-49
2024/03/08 06:10:33;;;;;;;11.98;10.35;;;;;;;8.87;58.33;97825.75;5071724;28;20044;-49
2024/03/08 06:13:02;;;;;;;14.90;10.30;;;;;;;8.82;58.48;97821.16;5070675;28;20020;-49
2024/03/08 06:15:28;;;;;;;19.73;10.25;;;;;;;8.82;58.78;97821.16;5070397;28;20028;-49
2024/03/08 06:17:54;;;;;;;13.40;10.35;;;;;;;8.89;58.19;97821.13;5070309;28;20172;-49
2024/03/08 06:20:19;;;;;;;12.50;10.68;;;;;;;9.15;57.31;97814.91;5071894;28;20037;-49
2024/03/08 06:22:45;;;;;;;12.48;10.18;;;;;;;9.65;56.62;97809.66;5053588;28;20028;-49
2024/03/08 06:25:14;;;;;;;15.85;9.88;;;;;;;10.10;55.63;97809.44;5070298;28;20112;-49
2024/03/08 06:27:42;;;;;;;13.20;8.55;;;;;;;10.76;54.97;97807.81;5070373;28;20375;-50
2024/03/08 06:30:09;;;;;;;15.25;10.05;;;;;;;11.55;52.44;97810.28;5070194;28;20035;-49
2024/03/08 06:32:36;;;;;;;12.55;9.73;;;;;;;12.25;50.35;97798.09;5071476;28;20093;-49
2024/03/08 06:35:06;;;;;;;18.35;9.27;;;;;;;12.54;48.63;97806.84;5070486;28;20051;-49
2024/03/08 06:37:33;;;;;;;11.05;9.40;;;;;;;12.95;47.72;97799.66;5071759;28;20074;-49
2024/03/08 06:40:00;;;;;;;11.55;10.15;;;;;;;12.78;46.93;97804.91;5070105;28;20047;-49
2024/03/08 06:42:29;;;;;;;13.43;10.38;;;;;;;12.14;48.55;97797.09;5070092;28;20439;-49
2024/03/08 06:44:59;;;;;;;15.75;11.85;;;;;;;11.71;49.86;97798.28;5071397;28;20490;-49
2024/03/08 06:47:25;;;;;;;18.08;11.68;;;;;;;11.53;50.33;97806.25;5071630;28;20035;-50
2024/03/08 06:49:52;;;;;;;13.73;10.60;;;;;;;11.38;50.85;97802.25;5069774;28;20048;-48
2024/03/08 06:52:18;;;;;;;12.90;9.88;;;;;;;11.16;50.95;97811.69;5071314;28;20035;-47
2024/03/08 06:54:44;;;;;;;15.95;14.15;;;;;;;10.91;51.18;97810.03;5071356;28;20482;-47
2024/03/08 06:57:10;;;;;;;11.57;9.10;;;;;;;10.91;52.46;97806.63;5070074;28;20074;-48
2024/03/08 06:59:36;;;;;;;11.77;9.85;;;;;;;10.96;51.97;97812.00;5074357;28;20033;-47
2024/03/08 07:02:03;;;;;;;20.35;10.32;;;;;;;10.91;51.25;97804.78;5074975;28;20024;-47
2024/03/08 07:04:29;;;;;;;15.93;10.82;;;;;;;10.82;51.15;97815.84;5073687;28;20024;-47
2024/03/08 07:06:57;;;;;;;16.83;13.07;;;;;;;10.74;52.46;97807.22;5074917;28;20023;-48
2024/03/08 07:09:26;;;;;;;15.38;10.38;;;;;;;10.92;52.21;97809.00;5074944;28;20402;-47
2024/03/08 07:11:54;;;;;;;16.35;11.55;;;;;;;10.90;52.25;97810.25;5073548;28;20016;-49
2024/03/08 07:14:23;;;;;;;22.17;11.63;;;;;;;10.92;51.76;97803.75;5073471;28;20024;-49
2024/03/08 07:16:51;;;;;;;16.00;11.07;;;;;;;11.02;51.90;97805.06;5074649;28;20099;-49
2024/03/08 07:19:17;;;;;;;13.50;9.98;;;;;;;11.15;51.32;97810.91;5074670;28;20039;-49
2024/03/08 07:21:44;;;;;;;12.80;10.25;;;;;;;11.16;51.46;97790.69;5074575;28;20375;-49
2024/03/08 07:26:39;;;;;;;16.98;10.18;;;;;;;11.30;50.99;97788.66;5074595;28;20024;-49
2024/03/08 07:29:05;;;;;;;11.63;8.90;;;;;;;11.37;50.62;97787.53;5074582;28;20615;-49
2024/03/08 07:34:16;;;;;;;12.48;10.05;;;;;;;13.31;46.73;97779.19;5074485;28;20047;-49
2024/03/08 07:36:42;;;;;;;18.35;9.68;;;;;;;13.92;44.42;97779.28;5074612;28;20025;-49
2024/03/08 07:39:14;;;;;;;13.75;10.55;;;;;;;14.39;42.95;97768.22;5074348;28;20025;-49
2024/03/08 07:41:40;;;;;;;20.92;11.27;;;;;;;14.48;42.82;97765.94;5074230;28;20028;-49
2024/03/08 07:44:07;;;;;;;16.13;10.55;;;;;;;14.32;42.77;97758.91;5074298;28;20393;-49
2024/03/08 07:46:36;;;;;;;13.00;10.30;;;;;;;13.90;42.42;97762.09;5073232;28;20032;-50
2024/03/08 07:49:03;;;;;;;12.23;9.73;;;;;;;13.51;43.15;97760.25;5072720;28;20044;-49
2024/03/08 07:51:30;;;;;;;17.33;10.05;;;;;;;13.37;44.62;97754.50;5074125;28;20020;-49
2024/03/08 07:53:57;;;;;;;12.40;10.50;;;;;;;13.47;44.64;97751.22;5073951;28;20056;-49
2024/03/08 07:56:22;;;;;;;15.63;10.07;;;;;;;13.74;43.67;97746.09;5073928;28;20063;-49
2024/03/08 07:58:48;;;;;;;16.40;9.45;;;;;;;13.74;43.46;97740.81;5072998;28;20044;-49
2024/03/08 08:01:18;;;;;;;17.35;10.82;;;;;;;13.71;43.14;97738.66;5072538;28;20036;-50
2024/03/08 08:03:44;;;;;;;12.70;8.88;;;;;;;13.67;43.29;97729.63;5073815;28;20017;-49
2024/03/08 08:06:15;;;;;;;15.13;9.32;;;;;;;13.62;43.05;97732.19;5074137;28;20048;-49
2024/03/08 08:08:44;;;;;;;17.90;14.60;;;;;;;13.99;43.17;97727.13;5073544;28;20146;-49
2024/03/08 08:11:11;;;;;;;17.38;14.75;;;;;;;14.63;41.95;97730.19;5072545;28;20057;-49
2024/03/08 08:13:37;;;;;;;12.45;10.05;;;;;;;15.20;40.20;97726.97;5072716;28;20025;-50
2024/03/08 08:16:05;;;;;;;15.10;8.68;;;;;;;15.44;39.55;97718.69;5072339;28;20031;-49
2024/03/08 08:18:31;;;;;;;12.35;9.05;;;;;;;15.72;39.72;97723.63;5073570;28;20024;-49
2024/03/08 08:20:56;;;;;;;13.43;8.85;;;;;;;15.82;38.70;97716.78;5073478;28;20047;-47
2024/03/08 08:23:25;;;;;;;15.57;8.48;;;;;;;15.76;39.16;97706.16;5073570;28;20035;-47
2024/03/08 08:25:51;;;;;;;13.68;11.30;;;;;;;16.07;38.08;97703.63;5073407;28;20032;-47
2024/03/08 08:28:18;;;;;;;12.65;8.57;;;;;;;15.83;37.70;97710.44;5072399;28;20036;-47
2024/03/08 08:30:44;;;;;;;16.92;10.60;;;;;;;15.57;38.38;97708.44;5073310;28;20017;-47
2024/03/08 08:33:10;;;;;;;12.63;9.35;;;;;;;15.54;38.33;97697.56;5073324;28;20024;-47
2024/03/08 08:35:39;;;;;;;14.13;9.00;;;;;;;15.08;39.11;97699.94;5073218;28;20024;-47
2024/03/08 08:38:07;;;;;;;12.88;9.18;;;;;;;15.24;38.82;97691.06;5072033;28;20142;-47
2024/03/08 08:40:33;;;;;;;11.68;8.05;;;;;;;15.15;38.88;97703.97;5073024;28;20020;-46
2024/03/08 08:42:59;;;;;;;11.18;9.45;;;;;;;15.16;38.59;97702.09;5073170;28;20029;-47
2024/03/08 08:45:25;;;;;;;13.43;10.20;;;;;;;15.34;38.98;97699.03;5071808;28;20087;-47
2024/03/08 08:47:52;;;;;;;10.32;8.93;;;;;;;15.81;37.92;97694.03;5073001;28;20048;-47
2024/03/08 08:50:22;;;;;;;10.25;9.20;;;;;;;15.99;37.58;97685.63;5071633;28;20410;-47
2024/03/08 08:52:49;;;;;;;11.05;8.80;;;;;;;16.42;37.28;97693.38;5071628;28;20406;-47
2024/03/08 08:55:15;;;;;;;10.20;8.68;;;;;;;17.17;36.26;97683.09;5072890;28;20036;-47
2024/03/08 08:57:41;;;;;;;10.35;8.48;;;;;;;17.75;34.74;97680.03;5072841;28;20021;-47
2024/03/08 09:00:10;;;;;;;9.05;8.10;;;;;;;17.14;35.93;97670.38;5071749;28;20031;-47
2024/03/08 09:02:37;;;;;;;12.60;8.18;;;;;;;16.73;36.44;97680.97;5071322;28;20047;-47
2024/03/08 09:05:03;;;;;;;11.93;8.27;;;;;;;17.05;35.94;97674.66;5072949;28;20028;-47
2024/03/08 09:07:29;;;;;;;13.30;9.50;;;;;;;17.67;34.70;97670.00;5071370;28;20078;-47
2024/03/08 09:09:57;;;;;;;14.23;8.98;;;;;;;18.40;33.41;97658.72;5071356;28;20051;-47
2024/03/08 09:12:24;;;;;;;25.75;22.52;;;;;;;19.02;32.77;97643.13;5071241;28;20024;-47
2024/03/08 09:14:50;;;;;;;18.38;11.48;;;;;;;19.47;31.96;97649.00;5072755;28;20082;-47
2024/03/08 09:17:20;;;;;;;14.52;9.07;;;;;;;19.82;31.24;97638.25;5072428;28;20032;-47
2024/03/08 09:19:47;;;;;;;15.35;10.57;;;;;;;20.22;30.76;97636.91;5072423;28;20035;-47
2024/03/08 09:22:13;;;;;;;13.82;10.20;;;;;;;19.99;30.17;97635.91;5071900;28;20454;-47
2024/03/08 09:24:39;;;;;;;14.18;10.75;;;;;;;19.68;31.23;97633.59;5071158;28;20038;-47
2024/03/08 09:27:05;;;;;;;13.23;8.35;;;;;;;20.02;31.06;97626.53;5072320;28;20079;-47
2024/03/08 09:29:31;;;;;;;10.55;7.30;;;;;;;20.56;29.37;97625.19;5072317;28;20032;-47
2024/03/08 09:31:56;;;;;;;10.38;7.60;;;;;;;20.66;29.87;97630.38;5072454;28;20490;-47
2024/03/08 09:34:23;;;;;;;12.50;8.15;;;;;;;20.90;28.77;97621.44;5071031;28;20027;-47
2024/03/08 09:36:51;;;;;;;8.55;6.60;;;;;;;21.40;27.92;97620.81;5070866;28;20394;-47
2024/03/08 09:39:19;;;;;;;8.30;5.93;;;;;;;21.48;27.44;97612.91;5072038;28;20029;-47
2024/03/08 09:41:48;;;;;;;9.18;6.75;;;;;;;21.72;27.43;97620.69;5071955;28;20029;-47
2024/03/08 09:44:15;;;;;;;8.90;6.47;;;;;;;21.81;26.73;97610.13;5072062;28;20563;-47
2024/03/08 09:46:42;;;;;;;9.85;8.40;;;;;;;21.49;27.15;97598.50;5071921;28;20028;-47
2024/03/08 09:49:08;;;;;;;11.05;7.97;;;;;;;21.15;27.87;97598.88;5071818;28;20080;-47
2024/03/08 09:51:38;;;;;;;7.78;5.85;;;;;;;20.68;28.37;97600.75;5070854;28;20035;-47
2024/03/08 09:54:07;;;;;;;11.95;6.40;;;;;;;19.91;28.45;97599.25;5070788;28;20025;-47
2024/03/08 09:56:38;;;;;;;8.93;6.25;;;;;;;19.72;28.90;97600.03;5072125;28;20033;-47
2024/03/08 10:01:36;;;;;;;7.80;5.80;;;;;;;20.39;28.12;97592.97;5071866;28;20051;-47
2024/03/08 10:04:02;;;;;;;8.52;6.65;;;;;;;20.22;28.86;97594.28;5071814;28;20482;-47
2024/03/08 10:06:28;;;;;;;9.20;6.68;;;;;;;20.27;29.03;97594.19;5070480;28;20037;-47
2024/03/08 10:08:55;;;;;;;7.40;6.65;;;;;;;20.44;28.76;97598.19;5071805;28;20362;-47
2024/03/08 10:11:21;;;;;;;7.68;6.43;;;;;;;20.47;28.73;97600.28;5071809;28;20078;-47
2024/03/08 10:13:48;;;;;;;9.13;6.05;;;;;;;20.53;28.91;97575.91;5071815;28;20025;-47
2024/03/08 10:16:14;;;;;;;7.15;6.45;;;;;;;21.06;28.22;97582.75;5054049;28;20429;-47
2024/03/08 10:18:40;;;;;;;9.32;5.93;;;;;;;21.54;27.18;97589.59;5071692;28;20028;-47
2024/03/08 10:21:10;;;;;;;8.23;5.32;;;;;;;21.48;27.22;97590.78;5070588;28;20394;-47
2024/03/08 10:23:36;;;;;;;8.95;5.82;;;;;;;21.32;27.50;97591.03;5070766;28;20051;-47
2024/03/08 10:26:21;;;;;;;7.45;6.32;;;;;;;21.42;27.79;97594.59;5071476;28;20025;-47
2024/03/08 10:28:52;;;;;;;9.57;6.55;;;;;;;21.25;28.24;97584.50;5070315;28;20031;-47
2024/03/08 10:31:21;;;;;;;10.73;5.82;;;;;;;21.20;27.74;97585.41;5071606;28;20021;-47
2024/03/08 10:33:51;;;;;;;7.40;6.10;;;;;;;20.56;28.46;97582.53;5075204;28;20021;-47
2024/03/08 10:36:19;;;;;;;7.50;6.55;;;;;;;19.87;29.55;97577.72;5075588;28;20020;-47
2024/03/08 10:38:46;;;;;;;10.15;8.02;;;;;;;19.98;29.02;97573.06;5075544;28;20518;-47
2024/03/08 10:41:13;;;;;;;7.85;6.68;;;;;;;20.76;27.85;97570.75;5075404;28;20024;-47
2024/03/08 10:43:47;;;;;;;11.40;6.45;;;;;;;21.67;27.65;97572.75;5075576;28;20037;-47
2024/03/08 10:46:36;;;;;;;10.13;5.85;;;;;;;21.78;26.32;97570.66;5074471;28;20042;-47
2024/03/08 10:49:06;;;;;;;20.92;9.23;;;;;;;20.44;28.14;97567.00;5072749;28;20059;-47
2024/03/08 10:51:32;;;;;;;20.98;14.57;;;;;;;19.71;28.61;97566.50;5075337;28;20023;-47
2024/03/08 10:53:59;;;;;;;16.85;11.13;;;;;;;18.68;30.57;97566.84;5075264;28;20056;-47
2024/03/08 10:56:27;;;;;;;11.40;6.82;;;;;;;18.14;30.86;97565.94;5075157;28;20025;-47
2024/03/08 10:58:55;;;;;;;10.63;7.32;;;;;;;17.80;31.90;97568.53;5075119;28;20055;-47
2024/03/08 11:01:21;;;;;;;10.02;6.90;;;;;;;17.24;32.39;97563.50;5073672;28;20498;-47
2024/03/08 11:03:50;;;;;;;11.63;6.47;;;;;;;16.71;33.20;97553.28;5073733;28;20035;-47
2024/03/08 11:06:30;;;;;;;12.90;9.93;;;;;;;16.14;34.80;97537.44;5074944;28;20056;-47
2024/03/08 11:08:59;;;;;;;14.77;6.60;;;;;;;15.95;35.15;97525.78;5073782;28;20402;-47
2024/03/08 11:11:36;;;;;;;9.20;5.97;;;;;;;15.80;35.13;97528.41;5073506;28;20491;-47
2024/03/08 11:14:04;;;;;;;12.55;6.20;;;;;;;15.52;35.54;97531.22;5074839;28;20029;-47
2024/03/08 11:16:30;;;;;;;10.00;5.85;;;;;;;15.36;36.44;97529.59;5074680;28;20035;-47
2024/03/08 11:19:04;;;;;;;10.25;6.32;;;;;;;15.42;36.29;97525.13;5073382;28;20024;-47
2024/03/08 11:21:33;;;;;;;11.45;6.18;;;;;;;15.74;36.41;97531.03;5074667;28;20028;-47
2024/03/08 11:24:13;;;;;;;16.13;6.78;;;;;;;16.00;36.49;97519.69;5074673;28;20028;-47
2024/03/08 11:26:42;;;;;;;17.17;6.95;;;;;;;16.17;36.08;97523.66;5073566;28;20037;-46
2024/03/08 11:29:36;;;;;;;11.98;6.57;;;;;;;16.32;35.93;97528.16;5073316;28;20127;-47
2024/03/08 11:32:05;;;;;;;8.40;5.85;;;;;;;16.39;35.42;97514.66;5074430;28;20032;-47
2024/03/08 11:34:34;;;;;;;11.52;6.40;;;;;;;16.20;35.96;97510.94;5074463;28;20552;-47
2024/03/08 11:37:00;;;;;;;10.05;6.70;;;;;;;16.11;35.95;97494.81;5074373;28;20025;-47